Time;durP1;ratioP1;P1;durP2;ratioP2;P2;SDS_P1;SDS_P2;PMS_P1;PMS_P2;Temp;Humidity;BMP_temperature;BMP_pressure;BME280_temperature;BME280_humidity;BME280_pressure;Samples;Min_cycle;Max_cycle;Signal;HPM_P1;HPM_P2
2022/09/12 00:01:14;;;;;;;10.93;6.57;;;;;;;;;;5064312;28;20025;-81
2022/09/12 00:03:40;;;;;;;11.07;6.38;;;;;;;;;;5064036;28;20025;-81
2022/09/12 00:06:12;;;;;;;10.80;6.50;;;;;;;;;;5064221;28;20258;-82
2022/09/12 00:08:37;;;;;;;13.00;5.78;;;;;;;;;;5064124;28;20023;-81
2022/09/12 00:11:05;;;;;;;8.55;5.38;;;;;;;;;;5062881;28;20013;-82
2022/09/12 00:13:30;;;;;;;9.65;6.05;;;;;;;;;;5063939;28;20020;-82
2022/09/12 00:15:55;;;;;;;10.38;6.15;;;;;;;;;;5064123;28;20055;-81
2022/09/12 00:18:21;;;;;;;23.67;6.45;;;;;;;;;;5063992;28;20032;-81
2022/09/12 00:20:46;;;;;;;28.00;5.97;;;;;;;;;;5063950;28;20027;-82
2022/09/12 00:23:12;;;;;;;12.48;6.93;;;;;;;;;;5062617;28;20039;-81
2022/09/12 00:25:45;;;;;;;10.95;6.22;;;;;;;;;;5062631;28;20103;-81
2022/09/12 00:28:12;;;;;;;13.80;6.35;;;;;;;;;;5064062;28;20190;-84
2022/09/12 00:30:46;;;;;;;14.10;6.78;;;;;;;;;;5063360;28;20021;-82
2022/09/12 00:33:12;;;;;;;11.50;6.75;;;;;;;;;;5063242;28;20021;-84
2022/09/12 00:35:46;;;;;;;11.18;6.80;;;;;;;;;;5063659;28;20048;-82
2022/09/12 00:38:13;;;;;;;11.48;7.13;;;;;;;;;;5063876;28;20276;-82
2022/09/12 00:40:39;;;;;;;10.35;6.90;;;;;;;;;;5063760;28;20078;-82
2022/09/12 00:43:04;;;;;;;10.43;6.72;;;;;;;;;;5063648;28;20186;-82
2022/09/12 00:45:30;;;;;;;11.25;6.82;;;;;;;;;;5062462;28;20070;-83
2022/09/12 00:47:59;;;;;;;10.30;6.45;;;;;;;;;;5063631;28;20021;-83
2022/09/12 00:50:25;;;;;;;11.70;6.65;;;;;;;;;;5063908;28;20308;-82
2022/09/12 00:52:58;;;;;;;12.40;6.82;;;;;;;;;;5066343;28;20083;-82
2022/09/12 00:55:34;;;;;;;9.70;6.35;;;;;;;;;;5067794;28;20036;-81
2022/09/12 00:58:09;;;;;;;11.35;6.10;;;;;;;;;;5066620;28;20208;-82
2022/09/12 01:00:35;;;;;;;10.50;5.95;;;;;;;;;;5068111;28;20032;-82
2022/09/12 01:03:07;;;;;;;9.45;5.90;;;;;;;;;;5067621;28;20025;-82
2022/09/12 01:05:35;;;;;;;11.38;6.05;;;;;;;;;;5067559;28;20080;-83
2022/09/12 01:08:02;;;;;;;9.85;5.88;;;;;;;;;;5067673;28;20075;-82
2022/09/12 01:10:29;;;;;;;9.15;5.80;;;;;;;;;;5067499;28;20240;-82
2022/09/12 01:12:54;;;;;;;10.48;5.80;;;;;;;;;;5067562;28;20024;-81
2022/09/12 01:15:20;;;;;;;9.75;5.93;;;;;;;;;;5067281;28;20052;-84
2022/09/12 01:18:21;;;;;;;11.30;5.90;;;;;;;;;;5067375;28;20025;-82
2022/09/12 01:21:10;;;;;;;8.10;5.72;;;;;;;;;;5067431;28;20261;-82
2022/09/12 01:24:12;;;;;;;9.10;5.60;;;;;;;;;;5066098;28;20262;-81
2022/09/12 01:27:10;;;;;;;8.90;5.72;;;;;;;;;;5067326;28;20032;-82
2022/09/12 01:30:08;;;;;;;9.52;6.00;;;;;;;;;;5065922;28;20028;-82
2022/09/12 01:32:46;;;;;;;10.68;6.53;;;;;;;;;;5067023;28;20032;-82
2022/09/12 01:35:23;;;;;;;8.95;6.05;;;;;;;;;;5067057;28;20044;-83
2022/09/12 01:37:52;;;;;;;12.02;6.25;;;;;;;;;;5067208;28;20088;-85
2022/09/12 01:40:30;;;;;;;9.65;6.05;;;;;;;;;;5067259;28;20028;-82
2022/09/12 01:43:02;;;;;;;10.55;6.32;;;;;;;;;;5067075;28;20053;-82
2022/09/12 01:45:34;;;;;;;10.23;6.18;;;;;;;;;;5066816;28;20024;-83
2022/09/12 01:48:09;;;;;;;8.20;5.60;;;;;;;;;;5065626;28;20024;-81
2022/09/12 01:50:43;;;;;;;8.77;5.80;;;;;;;;;;5066626;28;20047;-81
2022/09/12 01:53:21;;;;;;;13.35;5.88;;;;;;;;;;5066854;28;20101;-84
2022/09/12 01:56:06;;;;;;;8.68;5.97;;;;;;;;;;5066895;28;20025;-81
2022/09/12 01:58:43;;;;;;;12.82;5.78;;;;;;;;;;5066613;28;20377;-81
2022/09/12 02:01:23;;;;;;;8.07;5.43;;;;;;;;;;5066617;28;20025;-90
2022/09/12 02:04:11;;;;;;;9.95;5.97;;;;;;;;;;5064671;28;20040;-82
2022/09/12 02:06:47;;;;;;;8.80;5.60;;;;;;;;;;5066423;28;20029;-82
2022/09/12 02:09:36;;;;;;;9.68;5.93;;;;;;;;;;5066451;28;20372;-86
2022/09/12 02:12:04;;;;;;;10.10;5.80;;;;;;;;;;5066375;28;20021;-82
2022/09/12 02:14:33;;;;;;;10.55;6.13;;;;;;;;;;5066370;28;20025;-82
2022/09/12 02:17:12;;;;;;;8.75;5.82;;;;;;;;;;5065258;28;20029;-81
2022/09/12 02:19:44;;;;;;;8.93;6.18;;;;;;;;;;5066433;28;20049;-82
2022/09/12 02:22:16;;;;;;;8.05;5.75;;;;;;;;;;5066274;28;20080;-82
2022/09/12 02:24:46;;;;;;;9.02;5.90;;;;;;;;;;5066131;28;20220;-82
2022/09/12 02:27:28;;;;;;;9.18;5.72;;;;;;;;;;5066209;28;20035;-87
2022/09/12 02:29:53;;;;;;;8.93;5.53;;;;;;;;;;5066825;28;20040;-81
2022/09/12 02:32:41;;;;;;;8.48;5.80;;;;;;;;;;5065310;28;20313;-81
2022/09/12 02:35:21;;;;;;;8.40;5.63;;;;;;;;;;5065862;28;20021;-81
2022/09/12 02:38:11;;;;;;;9.75;6.13;;;;;;;;;;5065045;28;20025;-89
2022/09/12 02:40:37;;;;;;;12.40;5.80;;;;;;;;;;5067263;28;20017;-81
2022/09/12 02:43:04;;;;;;;8.30;5.55;;;;;;;;;;5066972;28;20032;-81
2022/09/12 02:45:33;;;;;;;10.43;5.65;;;;;;;;;;5066094;28;20325;-81
2022/09/12 02:48:08;;;;;;;9.63;5.95;;;;;;;;;;5064888;28;20053;-81
2022/09/12 02:50:34;;;;;;;9.70;6.00;;;;;;;;;;5065883;28;20024;-81
2022/09/12 02:53:03;;;;;;;10.52;5.90;;;;;;;;;;5066251;28;20017;-80
2022/09/12 02:55:33;;;;;;;8.95;5.78;;;;;;;;;;5065023;28;20033;-82
2022/09/12 02:58:02;;;;;;;8.93;5.80;;;;;;;;;;5065638;28;20017;-81
2022/09/12 03:00:38;;;;;;;11.38;6.15;;;;;;;;;;5064807;28;20112;-81
2022/09/12 03:03:19;;;;;;;9.18;5.63;;;;;;;;;;5066578;28;20217;-84
2022/09/12 03:05:59;;;;;;;12.00;5.88;;;;;;;;;;5064691;28;20369;-83
2022/09/12 03:09:00;;;;;;;8.55;5.68;;;;;;;;;;5064205;28;20024;-81
2022/09/12 03:11:53;;;;;;;9.35;6.00;;;;;;;;;;5055214;28;20221;-83
2022/09/12 03:14:28;;;;;;;9.00;5.40;;;;;;;;;;5065235;28;20078;-81
2022/09/12 03:17:08;;;;;;;9.57;5.88;;;;;;;;;;5064258;28;20305;-81
2022/09/12 03:19:40;;;;;;;8.52;5.78;;;;;;;;;;5065238;28;20025;-81
2022/09/12 03:22:32;;;;;;;9.27;6.03;;;;;;;;;;5065144;28;20178;-81
2022/09/12 03:25:17;;;;;;;8.80;5.88;;;;;;;;;;5065044;28;20063;-81
2022/09/12 03:27:55;;;;;;;12.93;6.60;;;;;;;;;;5063749;28;20088;-81
2022/09/12 03:30:21;;;;;;;10.40;6.50;;;;;;;;;;5065168;28;20028;-81
2022/09/12 03:32:49;;;;;;;12.88;6.93;;;;;;;;;;5063906;28;20218;-80
2022/09/12 03:35:17;;;;;;;11.25;6.13;;;;;;;;;;5065028;28;20101;-80
2022/09/12 03:37:43;;;;;;;10.18;6.03;;;;;;;;;;5065116;28;20248;-81
2022/09/12 03:40:10;;;;;;;10.05;6.10;;;;;;;;;;5063777;28;20025;-86
2022/09/12 03:42:36;;;;;;;8.32;5.93;;;;;;;;;;5063655;28;20029;-82
2022/09/12 03:45:01;;;;;;;34.10;6.57;;;;;;;;;;5064752;28;20051;-81
2022/09/12 03:47:26;;;;;;;18.33;5.72;;;;;;;;;;5063562;28;20021;-81
2022/09/12 03:49:52;;;;;;;37.63;6.57;;;;;;;;;;5064804;28;20217;-82
2022/09/12 03:52:18;;;;;;;24.77;6.05;;;;;;;;;;5063661;28;20044;-81
2022/09/12 03:54:43;;;;;;;16.65;6.18;;;;;;;;;;5064180;28;20382;-81
2022/09/12 03:57:09;;;;;;;13.15;6.03;;;;;;;;;;5064642;28;20044;-81
2022/09/12 03:59:34;;;;;;;10.00;5.50;;;;;;;;;;5063460;28;20306;-81
2022/09/12 04:02:00;;;;;;;12.32;5.85;;;;;;;;;;5064431;28;20044;-82
2022/09/12 04:04:25;;;;;;;9.80;5.75;;;;;;;;;;5063052;28;20021;-81
2022/09/12 04:06:51;;;;;;;11.30;6.20;;;;;;;;;;5064364;28;20373;-80
2022/09/12 04:09:16;;;;;;;11.70;5.93;;;;;;;;;;5064287;28;20183;-80
2022/09/12 04:11:41;;;;;;;11.48;6.18;;;;;;;;;;5063887;28;20044;-81
2022/09/12 04:14:07;;;;;;;11.43;5.88;;;;;;;;;;5063943;28;20024;-80
2022/09/12 04:16:32;;;;;;;15.73;5.50;;;;;;;;;;5063972;28;20025;-81
2022/09/12 04:18:58;;;;;;;16.85;5.97;;;;;;;;;;5064178;28;20075;-80
2022/09/12 04:21:23;;;;;;;16.42;6.35;;;;;;;;;;5063522;28;20047;-87
2022/09/12 04:23:49;;;;;;;12.20;6.53;;;;;;;;;;5063925;28;20088;-82
2022/09/12 04:26:16;;;;;;;12.45;5.47;;;;;;;;;;5063551;28;20036;-81
2022/09/12 04:28:42;;;;;;;10.93;5.50;;;;;;;;;;5063917;28;20024;-80
2022/09/12 04:31:12;;;;;;;13.52;6.22;;;;;;;;;;5062697;28;20359;-80
2022/09/12 04:33:38;;;;;;;15.55;5.78;;;;;;;;;;5063825;28;20305;-81
2022/09/12 04:36:13;;;;;;;9.45;5.85;;;;;;;;;;5063614;28;20071;-80
2022/09/12 04:38:39;;;;;;;9.15;5.88;;;;;;;;;;5063060;28;20049;-81
2022/09/12 04:41:16;;;;;;;13.82;5.60;;;;;;;;;;5064121;28;20029;-84
2022/09/12 04:43:42;;;;;;;15.40;6.10;;;;;;;;;;5064388;28;20027;-81
2022/09/12 04:46:10;;;;;;;15.23;5.95;;;;;;;;;;5065690;28;20067;-81
2022/09/12 04:48:36;;;;;;;15.45;5.60;;;;;;;;;;5064636;28;20100;-80
2022/09/12 04:51:13;;;;;;;24.10;6.00;;;;;;;;;;5064265;28;20381;-81
2022/09/12 04:53:39;;;;;;;13.82;6.07;;;;;;;;;;5062626;28;20029;-81
2022/09/12 04:56:07;;;;;;;19.08;5.78;;;;;;;;;;5063715;28;20244;-80
2022/09/12 04:58:33;;;;;;;15.80;5.82;;;;;;;;;;5064228;28;20031;-81
2022/09/12 05:01:12;;;;;;;15.32;5.80;;;;;;;;;;5063703;28;20113;-80
2022/09/12 05:03:38;;;;;;;13.60;6.22;;;;;;;;;;5063626;28;20086;-81
2022/09/12 05:06:15;;;;;;;16.33;6.22;;;;;;;;;;5062614;28;20100;-81
2022/09/12 05:08:41;;;;;;;12.35;6.20;;;;;;;;;;5063628;28;20021;-81
2022/09/12 05:11:10;;;;;;;12.40;6.57;;;;;;;;;;5063498;28;20028;-80
2022/09/12 05:13:35;;;;;;;14.02;6.65;;;;;;;;;;5063621;28;20020;-81
2022/09/12 05:16:03;;;;;;;12.23;6.50;;;;;;;;;;5063438;28;20053;-81
2022/09/12 05:18:31;;;;;;;8.73;6.00;;;;;;;;;;5062356;28;20104;-82
2022/09/12 05:20:59;;;;;;;11.77;6.00;;;;;;;;;;5063388;28;20084;-81
2022/09/12 05:23:26;;;;;;;9.68;6.40;;;;;;;;;;5063417;28;20017;-81
2022/09/12 05:25:53;;;;;;;10.85;6.38;;;;;;;;;;5063337;28;20021;-81
2022/09/12 05:28:21;;;;;;;14.23;6.18;;;;;;;;;;5063289;28;20325;-81
2022/09/12 05:30:47;;;;;;;10.57;5.85;;;;;;;;;;5063249;28;20025;-81
2022/09/12 05:33:14;;;;;;;12.88;5.65;;;;;;;;;;5062830;28;20017;-82
2022/09/12 05:35:39;;;;;;;7.80;5.40;;;;;;;;;;5061879;28;20352;-82
2022/09/12 05:38:05;;;;;;;11.73;6.00;;;;;;;;;;5062009;28;20032;-82
2022/09/12 05:40:32;;;;;;;48.55;7.93;;;;;;;;;;5065323;28;20126;-83
2022/09/12 05:42:57;;;;;;;58.65;7.10;;;;;;;;;;5065740;28;20029;-82
2022/09/12 05:45:22;;;;;;;62.30;7.85;;;;;;;;;;5066613;28;20116;-83
2022/09/12 05:47:48;;;;;;;23.45;6.20;;;;;;;;;;5065601;28;20333;-81
2022/09/12 05:50:13;;;;;;;21.52;5.95;;;;;;;;;;5065528;28;20088;-84
2022/09/12 05:52:39;;;;;;;20.45;6.30;;;;;;;;;;5065412;28;20059;-82
2022/09/12 05:55:05;;;;;;;53.70;7.40;;;;;;;;;;5066553;28;20029;-81
2022/09/12 05:57:31;;;;;;;48.05;6.20;;;;;;;;;;5065411;28;20013;-81
2022/09/12 05:59:56;;;;;;;35.53;6.85;;;;;;;;;;5065069;28;20056;-81
2022/09/12 06:02:21;;;;;;;48.97;7.03;;;;;;;;;;5065080;28;20021;-82
2022/09/12 06:04:47;;;;;;;33.30;6.95;;;;;;;;;;5066084;28;20025;-82
2022/09/12 06:07:13;;;;;;;25.42;6.38;;;;;;;;;;5065077;28;20045;-82
2022/09/12 06:09:39;;;;;;;28.30;6.25;;;;;;;;;;5064833;28;20096;-84
2022/09/12 06:12:05;;;;;;;25.20;5.80;;;;;;;;;;5066099;28;20204;-82
2022/09/12 06:14:31;;;;;;;15.43;6.15;;;;;;;;;;5064772;28;20087;-82
2022/09/12 06:16:57;;;;;;;10.85;6.22;;;;;;;;;;5066072;28;20252;-81
2022/09/12 06:19:23;;;;;;;17.77;6.18;;;;;;;;;;5066143;28;20305;-84
2022/09/12 06:21:50;;;;;;;15.27;6.38;;;;;;;;;;5065940;28;20021;-86
2022/09/12 06:24:16;;;;;;;15.25;6.28;;;;;;;;;;5065838;28;20021;-86
2022/09/12 06:26:42;;;;;;;15.05;7.40;;;;;;;;;;5065812;28;20056;-82
2022/09/12 06:29:10;;;;;;;9.40;6.57;;;;;;;;;;5065867;28;20024;-82
2022/09/12 06:31:37;;;;;;;11.82;7.22;;;;;;;;;;5065930;28;20048;-90
2022/09/12 06:34:07;;;;;;;11.82;6.68;;;;;;;;;;5065457;28;20028;-82
2022/09/12 06:36:38;;;;;;;9.32;6.03;;;;;;;;;;5066445;28;20104;-81
2022/09/12 06:39:07;;;;;;;8.82;5.90;;;;;;;;;;5066680;28;20309;-81
2022/09/12 06:41:33;;;;;;;9.95;6.30;;;;;;;;;;5067003;28;20201;-83
2022/09/12 06:43:59;;;;;;;14.93;7.32;;;;;;;;;;5065893;28;20093;-82
2022/09/12 06:46:26;;;;;;;10.82;7.10;;;;;;;;;;5065796;28;20092;-82
2022/09/12 06:48:52;;;;;;;11.95;7.32;;;;;;;;;;5066138;28;20025;-82
2022/09/12 06:51:19;;;;;;;11.60;6.93;;;;;;;;;;5065837;28;20021;-83
2022/09/12 06:53:45;;;;;;;12.00;6.53;;;;;;;;;;5065563;28;20075;-82
2022/09/12 06:56:14;;;;;;;13.70;6.80;;;;;;;;;;5065952;28;20028;-82
2022/09/12 06:58:40;;;;;;;8.82;5.70;;;;;;;;;;5065652;28;20025;-82
2022/09/12 07:01:11;;;;;;;11.90;5.85;;;;;;;;;;5065418;28;20021;-82
2022/09/12 07:03:37;;;;;;;9.82;6.15;;;;;;;;;;5065292;28;20020;-83
2022/09/12 07:06:05;;;;;;;9.30;5.90;;;;;;;;;;5065131;28;20028;-83
2022/09/12 07:08:32;;;;;;;11.70;5.85;;;;;;;;;;5065299;28;20025;-84
2022/09/12 07:11:06;;;;;;;11.35;6.20;;;;;;;;;;5064591;28;20021;-83
2022/09/12 07:13:31;;;;;;;9.68;5.85;;;;;;;;;;5065297;28;20025;-84
2022/09/12 07:16:01;;;;;;;10.70;5.97;;;;;;;;;;5065110;28;20024;-84
2022/09/12 07:18:27;;;;;;;8.25;5.13;;;;;;;;;;5064776;28;20021;-82
2022/09/12 07:20:52;;;;;;;10.75;5.38;;;;;;;;;;5064825;28;20332;-84
2022/09/12 07:23:17;;;;;;;9.15;5.78;;;;;;;;;;5064817;28;20309;-82
2022/09/12 07:25:50;;;;;;;11.05;5.47;;;;;;;;;;5064673;28;20092;-88
2022/09/12 07:28:16;;;;;;;9.68;5.38;;;;;;;;;;5064840;28;20021;-86
2022/09/12 07:30:41;;;;;;;9.98;5.35;;;;;;;;;;5064771;28;20021;-86
2022/09/12 07:33:06;;;;;;;8.15;5.32;;;;;;;;;;5064753;28;20063;-86
2022/09/12 07:35:32;;;;;;;10.98;5.28;;;;;;;;;;5064315;28;20098;-86
2022/09/12 07:38:01;;;;;;;8.43;5.47;;;;;;;;;;5064964;28;20032;-87
2022/09/12 07:40:26;;;;;;;9.05;5.03;;;;;;;;;;5064605;28;20324;-88
2022/09/12 07:42:51;;;;;;;7.85;4.70;;;;;;;;;;5064427;28;20092;-86
2022/09/12 07:45:17;;;;;;;7.40;4.82;;;;;;;;;;5064298;28;20025;-87
2022/09/12 07:47:43;;;;;;;9.90;5.55;;;;;;;;;;5064650;28;20029;-86
2022/09/12 07:50:08;;;;;;;9.38;5.60;;;;;;;;;;5064336;28;20206;-88
2022/09/12 07:52:33;;;;;;;8.05;4.90;;;;;;;;;;5063107;28;20088;-88
2022/09/12 07:54:59;;;;;;;7.90;4.68;;;;;;;;;;5064141;28;20084;-86
2022/09/12 07:57:24;;;;;;;10.95;5.60;;;;;;;;;;5064277;28;20086;-86
2022/09/12 07:59:50;;;;;;;10.93;5.20;;;;;;;;;;5064206;28;20017;-87
2022/09/12 08:02:15;;;;;;;6.55;4.95;;;;;;;;;;5063615;28;20036;-88
2022/09/12 08:04:41;;;;;;;6.25;4.15;;;;;;;;;;5064332;28;20017;-88
2022/09/12 08:07:07;;;;;;;6.15;4.22;;;;;;;;;;5062721;28;20029;-86
2022/09/12 08:09:33;;;;;;;6.05;4.07;;;;;;;;;;5064149;28;20021;-87
2022/09/12 08:11:59;;;;;;;10.70;4.05;;;;;;;;;;5063871;28;20020;-86
2022/09/12 08:14:24;;;;;;;6.72;3.90;;;;;;;;;;5064016;28;20021;-87
2022/09/12 08:16:49;;;;;;;9.07;3.70;;;;;;;;;;5063828;28;20033;-87
2022/09/12 08:19:15;;;;;;;7.32;3.63;;;;;;;;;;5063953;28;20028;-86
2022/09/12 08:21:40;;;;;;;8.00;3.50;;;;;;;;;;5063660;28;20024;-86
2022/09/12 08:24:06;;;;;;;7.45;3.58;;;;;;;;;;5063864;28;20031;-87
2022/09/12 08:26:32;;;;;;;6.50;3.30;;;;;;;;;;5062502;28;20280;-87
2022/09/12 08:28:58;;;;;;;4.70;3.22;;;;;;;;;;5063714;28;20376;-87
2022/09/12 08:31:26;;;;;;;6.95;3.40;;;;;;;;;;5062550;28;20308;-87
2022/09/12 08:33:57;;;;;;;5.50;3.20;;;;;;;;;;5063351;28;20049;-87
2022/09/12 08:36:24;;;;;;;6.90;3.22;;;;;;;;;;5063927;28;20040;-87
2022/09/12 08:38:56;;;;;;;5.80;3.33;;;;;;;;;;5063830;28;20028;-86
2022/09/12 08:41:38;;;;;;;6.65;3.30;;;;;;;;;;5062720;28;20017;-83
2022/09/12 08:44:28;;;;;;;5.50;3.15;;;;;;;;;;5063996;28;20052;-84
2022/09/12 08:47:05;;;;;;;5.10;2.92;;;;;;;;;;5063843;28;20336;-84
2022/09/12 08:49:58;;;;;;;6.65;3.30;;;;;;;;;;5063958;28;20049;-83
2022/09/12 08:52:31;;;;;;;5.85;3.20;;;;;;;;;;5063936;28;20021;-85
2022/09/12 08:54:57;;;;;;;6.13;3.00;;;;;;;;;;5063951;28;20021;-84
2022/09/12 08:57:23;;;;;;;6.32;2.78;;;;;;;;;;5063965;28;20363;-85
2022/09/12 08:59:49;;;;;;;4.07;2.78;;;;;;;;;;5063700;28;20048;-83
2022/09/12 09:02:39;;;;;;;6.00;2.90;;;;;;;;;;5063564;28;20021;-85
2022/09/12 09:05:22;;;;;;;6.03;2.88;;;;;;;;;;5063668;28;20021;-84
2022/09/12 09:07:59;;;;;;;5.15;2.90;;;;;;;;;;5063619;28;20075;-80
2022/09/12 09:10:51;;;;;;;5.97;2.90;;;;;;;;;;5063593;28;20041;-86
2022/09/12 09:16:30;;;;;;;9.13;2.67;;;;;;;;;;5067522;28;20336;-84
2022/09/12 09:19:04;;;;;;;5.88;2.72;;;;;;;;;;5066494;28;20096;-85
2022/09/12 09:21:54;;;;;;;7.60;2.70;;;;;;;;;;5067551;28;20024;-82
2022/09/12 09:24:26;;;;;;;5.55;2.50;;;;;;;;;;5064792;28;20064;-87
2022/09/12 09:27:00;;;;;;;8.63;3.13;;;;;;;;;;5066452;28;20033;-89
2022/09/12 09:29:32;;;;;;;7.43;2.70;;;;;;;;;;5067340;28;20028;-89
2022/09/12 09:32:02;;;;;;;9.40;2.60;;;;;;;;;;5066326;28;20033;-88
2022/09/12 09:34:30;;;;;;;4.88;2.40;;;;;;;;;;5067184;28;20032;-87
2022/09/12 09:37:07;;;;;;;8.20;2.65;;;;;;;;;;5066838;28;20045;-89
2022/09/12 09:39:35;;;;;;;10.18;2.90;;;;;;;;;;5066372;28;20028;-88
2022/09/12 09:42:34;;;;;;;5.57;2.67;;;;;;;;;;5066112;28;20304;-87
2022/09/12 09:45:10;;;;;;;4.70;2.30;;;;;;;;;;5067190;28;20017;-88
2022/09/12 09:47:36;;;;;;;4.45;2.30;;;;;;;;;;5065674;28;20029;-88
2022/09/12 09:50:02;;;;;;;3.55;2.45;;;;;;;;;;5066749;28;20381;-88
2022/09/12 09:52:29;;;;;;;4.18;2.25;;;;;;;;;;5065608;28;20025;-89
2022/09/12 09:55:01;;;;;;;4.78;2.30;;;;;;;;;;5065956;28;20025;-90
2022/09/12 09:57:32;;;;;;;4.80;2.20;;;;;;;;;;5082664;28;20020;-88
2022/09/12 09:59:58;;;;;;;6.35;2.63;;;;;;;;;;5066050;28;20025;-89
2022/09/12 10:02:25;;;;;;;6.40;2.30;;;;;;;;;;5066668;28;20270;-88
2022/09/12 10:04:57;;;;;;;3.50;2.20;;;;;;;;;;5065848;28;20025;-88
2022/09/12 10:07:24;;;;;;;5.78;2.53;;;;;;;;;;5066551;28;20386;-90
2022/09/12 10:10:12;;;;;;;5.00;2.45;;;;;;;;;;5066162;28;20063;-90
2022/09/12 10:12:37;;;;;;;3.95;1.95;;;;;;;;;;5065181;28;20025;-88
2022/09/12 10:15:14;;;;;;;4.47;2.00;;;;;;;;;;5066530;28;20317;-88
2022/09/12 10:17:45;;;;;;;3.53;2.00;;;;;;;;;;5066423;28;20309;-89
2022/09/12 10:20:29;;;;;;;11.27;3.70;;;;;;;;;;5066403;28;20071;-90
2022/09/12 10:22:56;;;;;;;5.30;2.58;;;;;;;;;;5065042;28;20217;-90
2022/09/12 10:25:24;;;;;;;5.50;2.60;;;;;;;;;;5065547;28;20044;-88
2022/09/12 10:27:56;;;;;;;6.45;3.17;;;;;;;;;;5066010;28;20034;-88
2022/09/12 10:30:27;;;;;;;7.65;4.45;;;;;;;;;;5066264;28;20021;-88
2022/09/12 10:32:55;;;;;;;8.73;4.18;;;;;;;;;;5066112;28;20240;-88
2022/09/12 10:35:22;;;;;;;12.20;4.50;;;;;;;;;;5064700;28;20180;-89
2022/09/12 10:38:01;;;;;;;3.63;1.58;;;;;;;;;;5066273;28;20114;-89
2022/09/12 10:40:31;;;;;;;4.60;2.00;;;;;;;;;;5064996;28;20020;-92
2022/09/12 10:42:58;;;;;;;3.40;1.80;;;;;;;;;;5064776;28;20021;-91
2022/09/12 10:45:36;;;;;;;5.68;1.95;;;;;;;;;;5065734;28;20021;-90
2022/09/12 10:48:23;;;;;;;2.50;1.50;;;;;;;;;;5064617;28;20028;-89
2022/09/12 10:50:48;;;;;;;2.95;1.58;;;;;;;;;;5065882;28;20048;-90
2022/09/12 10:53:25;;;;;;;3.25;1.60;;;;;;;;;;5066003;28;20313;-90
2022/09/12 10:56:11;;;;;;;5.13;1.70;;;;;;;;;;5066011;28;20091;-91
2022/09/12 10:58:45;;;;;;;2.67;1.63;;;;;;;;;;5065775;28;20063;-90
2022/09/12 11:01:36;;;;;;;2.67;1.50;;;;;;;;;;5065841;28;20315;-88
2022/09/12 11:04:19;;;;;;;3.50;1.55;;;;;;;;;;5065597;28;20036;-89
2022/09/12 11:06:57;;;;;;;3.30;1.70;;;;;;;;;;5065254;28;20029;-92
2022/09/12 11:09:49;;;;;;;4.97;1.58;;;;;;;;;;5065515;28;20321;-88
2022/09/12 11:12:42;;;;;;;3.17;1.60;;;;;;;;;;5064322;28;20024;-88
2022/09/12 11:15:28;;;;;;;3.47;1.75;;;;;;;;;;5065694;28;20027;-87
2022/09/12 11:17:59;;;;;;;3.92;1.40;;;;;;;;;;5064464;28;20021;-90
2022/09/12 11:20:43;;;;;;;3.60;1.60;;;;;;;;;;5065129;28;20052;-89
2022/09/12 11:23:29;;;;;;;3.28;1.75;;;;;;;;;;5064950;28;20308;-88
2022/09/12 11:26:23;;;;;;;3.10;1.50;;;;;;;;;;5065241;28;20039;-89
2022/09/12 11:29:33;;;;;;;3.00;1.52;;;;;;;;;;5065065;28;20025;-89
2022/09/12 11:32:26;;;;;;;2.75;1.30;;;;;;;;;;5041720;28;20228;-88
2022/09/12 11:35:11;;;;;;;3.88;1.50;;;;;;;;;;5063925;28;20321;-85
2022/09/12 11:38:08;;;;;;;2.20;1.20;;;;;;;;;;5063963;28;20021;-86
2022/09/12 11:40:54;;;;;;;5.10;1.30;;;;;;;;;;5063902;28;20079;-86
2022/09/12 11:43:53;;;;;;;3.35;1.50;;;;;;;;;;5064718;28;20028;-93
2022/09/12 11:46:33;;;;;;;3.72;1.50;;;;;;;;;;5064395;28;20055;-86
2022/09/12 11:49:19;;;;;;;3.95;1.30;;;;;;;;;;5065032;28;20025;-91
2022/09/12 11:52:03;;;;;;;2.05;1.25;;;;;;;;;;5060981;28;20035;-86
2022/09/12 11:54:43;;;;;;;3.25;1.23;;;;;;;;;;5064847;28;20032;-86
2022/09/12 11:57:38;;;;;;;2.20;1.30;;;;;;;;;;5063927;28;20033;-86
2022/09/12 12:00:13;;;;;;;3.38;1.20;;;;;;;;;;5064567;28;20028;-86
2022/09/12 12:02:49;;;;;;;1.63;1.10;;;;;;;;;;5064470;28;20021;-86
2022/09/12 12:05:24;;;;;;;3.65;1.38;;;;;;;;;;5064296;28;20047;-85
2022/09/12 12:07:58;;;;;;;1.90;1.20;;;;;;;;;;5064379;28;20017;-85
2022/09/12 12:10:39;;;;;;;2.40;1.30;;;;;;;;;;5063527;28;20032;-87
2022/09/12 12:13:14;;;;;;;4.57;1.15;;;;;;;;;;5064180;28;20317;-86
2022/09/12 12:15:45;;;;;;;4.55;1.20;;;;;;;;;;5064187;28;20036;-87
2022/09/12 12:18:18;;;;;;;2.47;1.20;;;;;;;;;;5063289;28;20032;-87
2022/09/12 12:20:43;;;;;;;2.45;1.23;;;;;;;;;;5063258;28;20017;-84
2022/09/12 12:23:29;;;;;;;2.17;1.17;;;;;;;;;;5064112;28;20017;-86
2022/09/12 12:26:00;;;;;;;3.22;1.30;;;;;;;;;;5063162;28;20031;-86
2022/09/12 12:28:41;;;;;;;3.42;1.30;;;;;;;;;;5063982;28;20035;-86
2022/09/12 12:31:07;;;;;;;2.97;1.30;;;;;;;;;;5063548;28;20031;-84
2022/09/12 12:33:32;;;;;;;3.03;1.20;;;;;;;;;;5063944;28;20070;-87
2022/09/12 12:36:01;;;;;;;2.35;1.50;;;;;;;;;;5064105;28;20260;-85
2022/09/12 12:38:26;;;;;;;2.30;1.13;;;;;;;;;;5063300;28;20048;-85
2022/09/12 12:40:52;;;;;;;2.08;1.20;;;;;;;;;;5063923;28;20320;-85
2022/09/12 12:43:31;;;;;;;2.33;1.08;;;;;;;;;;5063940;28;20020;-85
2022/09/12 12:46:08;;;;;;;2.90;1.30;;;;;;;;;;5063889;28;20086;-85
2022/09/12 12:48:48;;;;;;;2.35;1.30;;;;;;;;;;5063632;28;20021;-85
2022/09/12 12:51:31;;;;;;;4.68;1.10;;;;;;;;;;5062955;28;20028;-85
2022/09/12 12:53:59;;;;;;;2.75;1.23;;;;;;;;;;5062729;28;20048;-86
2022/09/12 12:56:31;;;;;;;2.90;1.30;;;;;;;;;;5063751;28;20300;-83
2022/09/12 12:58:59;;;;;;;3.00;1.25;;;;;;;;;;5063717;28;20021;-83
2022/09/12 13:01:25;;;;;;;5.28;1.50;;;;;;;;;;5063632;28;20036;-83
2022/09/12 13:03:59;;;;;;;1.85;1.13;;;;;;;;;;5063642;28;20021;-84
2022/09/12 13:06:33;;;;;;;2.33;1.10;;;;;;;;;;5063641;28;20035;-88
2022/09/12 13:09:06;;;;;;;2.13;1.10;;;;;;;;;;5063662;28;20084;-87
2022/09/12 13:11:32;;;;;;;2.28;1.15;;;;;;;;;;5063748;28;20059;-85
2022/09/12 13:14:00;;;;;;;2.25;1.10;;;;;;;;;;5063601;28;20052;-85
2022/09/12 13:16:56;;;;;;;1.40;0.98;;;;;;;;;;5063618;28;20027;-86
2022/09/12 13:19:28;;;;;;;1.70;1.00;;;;;;;;;;5060346;28;20120;-84
2022/09/12 13:22:01;;;;;;;3.53;1.10;;;;;;;;;;5063684;28;20078;-83
2022/09/12 13:24:27;;;;;;;2.38;0.90;;;;;;;;;;5063400;28;20021;-83
2022/09/12 13:26:52;;;;;;;1.38;0.98;;;;;;;;;;5063440;28;20040;-84
2022/09/12 13:29:21;;;;;;;1.95;1.10;;;;;;;;;;5063367;28;20037;-84
2022/09/12 13:31:58;;;;;;;2.42;0.93;;;;;;;;;;5062036;28;20100;-84
2022/09/12 13:34:28;;;;;;;3.83;1.00;;;;;;;;;;5063260;28;20025;-84
2022/09/12 13:37:12;;;;;;;2.42;1.00;;;;;;;;;;5063198;28;20336;-83
2022/09/12 13:40:01;;;;;;;3.55;1.20;;;;;;;;;;5063130;28;20028;-83
2022/09/12 13:42:45;;;;;;;2.25;1.10;;;;;;;;;;5063414;28;20328;-86
2022/09/12 13:45:23;;;;;;;1.55;0.88;;;;;;;;;;5063443;28;20029;-86
2022/09/12 13:47:54;;;;;;;4.38;1.20;;;;;;;;;;5063280;28;20021;-84
2022/09/12 13:50:23;;;;;;;1.80;0.93;;;;;;;;;;5063223;28;20024;-82
2022/09/12 13:52:53;;;;;;;2.92;1.02;;;;;;;;;;5063166;28;20027;-85
2022/09/12 13:55:31;;;;;;;1.75;0.90;;;;;;;;;;5063129;28;20089;-86
2022/09/12 13:58:02;;;;;;;2.28;1.13;;;;;;;;;;5063147;28;20304;-84
2022/09/12 14:00:31;;;;;;;2.00;1.00;;;;;;;;;;5063780;28;20086;-82
2022/09/12 14:05:45;;;;;;;2.40;1.30;;;;;;;;;;5066626;28;20036;-87
2022/09/12 14:08:14;;;;;;;2.03;1.00;;;;;;;;;;5066496;28;20055;-83
2022/09/12 14:10:42;;;;;;;1.55;0.95;;;;;;;;;;5066650;28;20025;-84
2022/09/12 14:13:16;;;;;;;1.48;0.90;;;;;;;;;;5065712;28;20036;-81
2022/09/12 14:15:47;;;;;;;1.23;0.90;;;;;;;;;;5065021;28;20032;-82
2022/09/12 14:18:34;;;;;;;1.27;0.90;;;;;;;;;;5065249;28;20074;-82
2022/09/12 14:21:27;;;;;;;1.33;0.82;;;;;;;;;;5066361;28;20305;-82
2022/09/12 14:23:53;;;;;;;2.47;0.80;;;;;;;;;;5062746;28;20075;-82
2022/09/12 14:26:20;;;;;;;3.78;1.00;;;;;;;;;;5066191;28;20048;-82
2022/09/12 14:28:46;;;;;;;3.95;1.20;;;;;;;;;;5066203;28;20204;-82
2022/09/12 14:31:44;;;;;;;1.75;0.90;;;;;;;;;;5066136;28;20028;-81
2022/09/12 14:34:17;;;;;;;1.75;0.95;;;;;;;;;;5043128;28;20035;-82
2022/09/12 14:36:44;;;;;;;2.17;0.90;;;;;;;;;;5065980;28;20048;-81
2022/09/12 14:39:21;;;;;;;0.70;0.70;;;;;;;;;;5065788;28;20047;-82
2022/09/12 14:41:48;;;;;;;1.85;1.00;;;;;;;;;;5065704;28;20025;-81
2022/09/12 14:44:25;;;;;;;1.20;0.80;;;;;;;;;;5065820;28;20056;-81
2022/09/12 14:46:51;;;;;;;1.48;0.90;;;;;;;;;;5065591;28;20048;-82
2022/09/12 14:49:31;;;;;;;1.45;1.00;;;;;;;;;;5065728;28;20024;-84
2022/09/12 14:51:59;;;;;;;1.42;0.90;;;;;;;;;;5065858;28;20143;-81
2022/09/12 14:54:28;;;;;;;1.90;0.90;;;;;;;;;;5065765;28;20248;-82
2022/09/12 14:56:56;;;;;;;2.67;0.95;;;;;;;;;;5064467;28;20017;-83
2022/09/12 14:59:29;;;;;;;3.22;1.00;;;;;;;;;;5065893;28;20110;-81
2022/09/12 15:02:15;;;;;;;2.53;1.08;;;;;;;;;;5065497;28;20096;-81
2022/09/12 15:04:46;;;;;;;1.73;0.90;;;;;;;;;;5064159;28;20024;-82
2022/09/12 15:07:41;;;;;;;1.52;0.93;;;;;;;;;;5064005;28;20036;-81
2022/09/12 15:10:25;;;;;;;;;;;;;;;;;;5065680;28;20319;-82
2022/09/12 15:13:08;;;;;;;1.02;0.90;;;;;;;;;;5064096;28;19916;-81
2022/09/12 15:15:38;;;;;;;2.00;0.95;;;;;;;;;;5064348;28;20087;-82